createdAt,value
2018-06-07T00:01:49.151Z,43.50
2018-06-07T00:04:17.666Z,43.50
2018-06-07T00:06:46.158Z,43.50
2018-06-07T00:09:14.666Z,43.40
2018-06-07T00:11:43.105Z,43.40
2018-06-07T00:14:11.728Z,43.30
2018-06-07T00:16:40.290Z,44.00
2018-06-07T00:19:08.797Z,44.10
2018-06-07T00:21:37.262Z,44.30
2018-06-07T00:24:05.771Z,44.40
2018-06-07T00:26:34.212Z,44.10
2018-06-07T00:29:02.729Z,44.30
2018-06-07T00:31:31.210Z,44.20
2018-06-07T00:33:59.680Z,45.40
2018-06-07T00:36:28.130Z,44.80
2018-06-07T00:38:56.637Z,44.70
2018-06-07T00:43:53.318Z,44.60
2018-06-07T00:46:21.927Z,45.00
2018-06-07T00:48:50.379Z,45.00
2018-06-07T00:51:18.872Z,45.50
2018-06-07T00:53:47.405Z,45.40
2018-06-07T00:56:26.966Z,45.80
2018-06-07T00:58:55.453Z,45.70
2018-06-07T01:01:24.039Z,45.80
2018-06-07T01:06:20.741Z,46.40
2018-06-07T01:08:49.281Z,46.30
2018-06-07T01:11:17.739Z,46.40
2018-06-07T01:13:46.206Z,46.10
2018-06-07T01:16:14.641Z,46.40
2018-06-07T01:18:43.119Z,46.40
2018-06-07T01:21:11.595Z,47.00
2018-06-07T01:23:40.138Z,47.50
2018-06-07T01:26:08.582Z,46.90
2018-06-07T01:28:37.077Z,47.40
2018-06-07T01:31:10.822Z,47.50
2018-06-07T01:33:44.677Z,47.50
2018-06-07T01:36:13.152Z,47.50
2018-06-07T01:39:08.580Z,47.30
2018-06-07T01:41:37.183Z,47.70
2018-06-07T01:44:05.690Z,47.80
2018-06-07T01:46:39.205Z,47.90
2018-06-07T01:49:07.745Z,48.00
2018-06-07T01:51:36.366Z,48.20
2018-06-07T01:54:05.266Z,48.10
2018-06-07T01:56:34.775Z,48.20
2018-06-07T01:59:03.572Z,48.80
2018-06-07T02:01:32.140Z,49.20
2018-06-07T02:04:00.613Z,49.30
2018-06-07T02:06:29.866Z,49.30
2018-06-07T02:08:59.816Z,49.30
2018-06-07T02:11:28.272Z,49.30
2018-06-07T02:13:59.913Z,49.20
2018-06-07T02:16:29.578Z,49.20
2018-06-07T02:19:00.348Z,49.00
2018-06-07T02:21:29.582Z,49.70
2018-06-07T02:24:01.223Z,50.50
2018-06-07T02:26:31.133Z,50.50
2018-06-07T02:28:59.636Z,51.20
2018-06-07T02:31:28.108Z,51.60
2018-06-07T02:33:56.742Z,51.60
2018-06-07T02:36:25.212Z,51.60
2018-06-07T02:38:53.655Z,51.50
2018-06-07T02:41:22.291Z,51.70
2018-06-07T02:43:50.746Z,51.50
2018-06-07T02:46:19.242Z,51.40
2018-06-07T02:48:47.860Z,51.30
2018-06-07T02:51:16.352Z,51.60
2018-06-07T02:53:44.805Z,51.60
2018-06-07T02:56:13.273Z,51.80
2018-06-07T02:58:41.719Z,52.00
2018-06-07T03:01:10.408Z,51.60
2018-06-07T03:03:38.951Z,51.70
2018-06-07T03:06:07.518Z,52.10
2018-06-07T03:08:35.967Z,51.90
2018-06-07T03:11:04.501Z,52.30
2018-06-07T03:13:33.012Z,52.50
2018-06-07T03:16:01.510Z,52.80
2018-06-07T03:18:29.939Z,53.50
2018-06-07T03:20:58.402Z,53.20
2018-06-07T03:23:26.919Z,53.10
2018-06-07T03:25:55.431Z,53.00
2018-06-07T03:28:23.960Z,53.30
2018-06-07T03:30:52.393Z,53.30
2018-06-07T03:33:20.898Z,53.30
2018-06-07T03:35:49.346Z,52.90
2018-06-07T03:38:17.833Z,53.00
2018-06-07T03:40:46.286Z,52.60
2018-06-07T03:43:14.780Z,53.10
2018-06-07T03:45:47.141Z,52.40
2018-06-07T03:48:15.797Z,52.40
2018-06-07T03:50:44.241Z,52.50
2018-06-07T03:53:12.754Z,52.30
2018-06-07T03:55:41.241Z,52.20
2018-06-07T03:58:09.738Z,51.90
2018-06-07T04:00:38.343Z,51.20
2018-06-07T04:03:06.869Z,51.20
2018-06-07T04:05:35.325Z,50.90
2018-06-07T04:08:03.943Z,50.70
2018-06-07T04:10:32.394Z,51.80
2018-06-07T04:13:01.786Z,51.20
2018-06-07T04:15:30.287Z,50.80
2018-06-07T04:17:58.856Z,51.20
2018-06-07T04:20:28.146Z,50.50
2018-06-07T04:22:56.655Z,50.60
2018-06-07T04:25:25.128Z,50.60
2018-06-07T04:27:53.629Z,50.70
2018-06-07T04:30:22.065Z,50.70
2018-06-07T04:32:50.631Z,51.00
2018-06-07T04:35:19.087Z,50.70
2018-06-07T04:37:47.566Z,50.60
2018-06-07T04:40:16.057Z,50.10
2018-06-07T04:42:44.565Z,50.60
2018-06-07T04:45:13.036Z,50.60
2018-06-07T04:47:41.544Z,50.20
2018-06-07T04:50:10.008Z,50.00
2018-06-07T04:52:38.495Z,50.00
2018-06-07T04:55:06.934Z,49.90
2018-06-07T04:57:35.465Z,49.90
2018-06-07T05:00:04.399Z,50.00
2018-06-07T05:02:32.868Z,49.70
2018-06-07T05:05:01.330Z,49.70
2018-06-07T05:07:29.865Z,49.70
2018-06-07T05:09:58.354Z,49.50
2018-06-07T05:12:26.895Z,49.50
2018-06-07T05:14:55.373Z,49.50
2018-06-07T05:17:23.861Z,49.40
2018-06-07T05:19:52.344Z,49.40
2018-06-07T05:22:20.807Z,49.30
2018-06-07T05:24:49.372Z,48.60
2018-06-07T05:27:17.807Z,49.10
2018-06-07T05:29:46.291Z,49.30
2018-06-07T05:32:14.753Z,48.90
2018-06-07T05:34:43.235Z,49.00
2018-06-07T05:37:11.687Z,48.90
2018-06-07T05:39:40.199Z,48.70
2018-06-07T05:42:08.633Z,48.70
2018-06-07T05:44:37.718Z,49.40
2018-06-07T05:47:06.186Z,49.10
2018-06-07T05:49:34.666Z,49.00
2018-06-07T05:52:03.221Z,48.50
2018-06-07T05:54:31.780Z,49.00
2018-06-07T05:57:00.261Z,48.40
2018-06-07T05:59:28.740Z,48.80
2018-06-07T06:01:57.394Z,48.50
2018-06-07T06:04:25.927Z,48.20
2018-06-07T06:06:54.498Z,48.40
2018-06-07T06:09:23.057Z,48.30
2018-06-07T06:11:51.646Z,48.00
2018-06-07T06:14:20.111Z,47.60
2018-06-07T06:16:48.639Z,48.00
2018-06-07T06:19:17.149Z,48.40
2018-06-07T06:21:45.771Z,47.20
2018-06-07T06:24:14.230Z,47.30
2018-06-07T06:26:42.674Z,47.70
2018-06-07T06:31:45.903Z,47.90
2018-06-07T06:34:14.375Z,47.60
2018-06-07T06:36:43.526Z,47.60
2018-06-07T06:39:12.090Z,47.70
2018-06-07T06:41:40.572Z,47.70
2018-06-07T06:44:09.055Z,47.80
2018-06-07T06:46:37.533Z,47.90
2018-06-07T06:49:06.058Z,48.00
2018-06-07T06:51:34.606Z,48.10
2018-06-07T06:54:03.147Z,48.10
2018-06-07T06:56:31.687Z,48.10
2018-06-07T06:59:00.157Z,48.40
2018-06-07T07:01:28.772Z,48.50
2018-06-07T07:03:57.254Z,48.60
2018-06-07T07:06:25.735Z,48.60
2018-06-07T07:08:54.245Z,48.70
2018-06-07T07:11:22.728Z,48.80
2018-06-07T07:13:51.170Z,48.90
2018-06-07T07:16:19.655Z,49.00
2018-06-07T07:18:48.146Z,49.10
2018-06-07T07:21:16.636Z,49.20
2018-06-07T07:23:45.087Z,49.30
2018-06-07T07:26:13.597Z,49.30
2018-06-07T07:28:42.068Z,49.40
2018-06-07T07:31:10.614Z,48.50
2018-06-07T07:33:39.064Z,48.80
2018-06-07T07:36:07.564Z,48.70
2018-06-07T07:38:36.019Z,48.40
2018-06-07T07:41:04.526Z,49.50
2018-06-07T07:43:33.010Z,49.00
2018-06-07T07:46:01.539Z,49.10
2018-06-07T07:48:29.970Z,48.40
2018-06-07T07:50:58.489Z,48.10
2018-06-07T07:53:27.018Z,48.40
2018-06-07T07:55:55.507Z,48.80
2018-06-07T07:58:23.994Z,49.30
2018-06-07T08:00:52.553Z,49.40
2018-06-07T08:03:21.017Z,49.70
2018-06-07T08:05:49.742Z,49.30
2018-06-07T08:08:18.194Z,49.20
2018-06-07T08:10:46.721Z,49.30
2018-06-07T08:13:15.283Z,48.60
2018-06-07T08:15:43.955Z,48.70
2018-06-07T08:18:12.454Z,48.50
2018-06-07T08:20:41.000Z,48.30
2018-06-07T08:23:09.723Z,48.50
2018-06-07T08:25:38.441Z,48.10
2018-06-07T08:30:35.140Z,48.20
2018-06-07T08:33:03.662Z,47.40
2018-06-07T08:35:32.207Z,47.10
2018-06-07T08:38:00.706Z,46.50
2018-06-07T08:40:29.168Z,46.60
2018-06-07T08:42:57.682Z,46.70
2018-06-07T08:45:26.153Z,46.50
2018-06-07T08:47:54.642Z,45.80
2018-06-07T08:50:23.168Z,45.90
2018-06-07T08:52:51.708Z,46.20
2018-06-07T08:55:20.155Z,46.10
2018-06-07T08:57:48.733Z,45.50
2018-06-07T09:00:17.249Z,45.60
2018-06-07T09:02:45.771Z,45.60
2018-06-07T09:05:14.256Z,45.30
2018-06-07T09:07:42.758Z,45.20
2018-06-07T09:10:11.214Z,44.90
2018-06-07T09:12:39.687Z,45.80
2018-06-07T09:15:08.283Z,45.00
2018-06-07T09:17:36.754Z,45.00
2018-06-07T09:20:05.274Z,45.00
2018-06-07T09:22:33.774Z,45.00
2018-06-07T09:25:02.255Z,44.40
2018-06-07T09:27:30.800Z,44.90
2018-06-07T09:29:59.710Z,44.80
2018-06-07T09:32:28.669Z,44.80
2018-06-07T09:34:57.143Z,45.00
2018-06-07T09:37:26.470Z,44.30
2018-06-07T09:39:54.922Z,44.20
2018-06-07T09:42:23.575Z,43.90
2018-06-07T09:44:52.042Z,43.80
2018-06-07T09:47:20.499Z,44.00
2018-06-07T09:49:49.019Z,44.00
2018-06-07T09:52:17.618Z,43.80
2018-06-07T09:54:46.126Z,43.80
2018-06-07T09:57:14.616Z,43.20
2018-06-07T09:59:43.105Z,43.00
2018-06-07T10:02:11.687Z,42.90
2018-06-07T10:04:40.311Z,43.10
2018-06-07T10:07:08.757Z,42.90
2018-06-07T10:09:37.244Z,42.40
2018-06-07T10:12:05.838Z,42.60
2018-06-07T10:14:34.479Z,42.30
2018-06-07T10:17:03.071Z,42.30
2018-06-07T10:19:31.450Z,42.40
2018-06-07T10:21:59.958Z,42.30
2018-06-07T10:24:28.478Z,42.30
2018-06-07T10:26:56.989Z,42.10
2018-06-07T10:29:25.503Z,42.10
2018-06-07T10:31:53.966Z,42.00
2018-06-07T10:34:22.495Z,42.60
2018-06-07T10:36:50.945Z,41.90
2018-06-07T10:39:19.469Z,41.90
2018-06-07T10:41:47.926Z,41.70
2018-06-07T10:44:16.435Z,41.70
2018-06-07T10:46:44.878Z,41.60
2018-06-07T10:49:13.393Z,41.70
2018-06-07T10:51:41.879Z,41.10
2018-06-07T10:54:10.360Z,41.30
2018-06-07T10:56:38.865Z,41.70
2018-06-07T10:59:07.367Z,41.80
2018-06-07T11:01:36.014Z,41.70
2018-06-07T11:04:04.626Z,41.90
2018-06-07T11:06:33.094Z,42.20
2018-06-07T11:09:01.562Z,42.10
2018-06-07T11:11:30.115Z,42.00
2018-06-07T11:13:59.497Z,42.20
2018-06-07T11:16:27.994Z,42.20
2018-06-07T11:18:56.546Z,42.40
2018-06-07T11:21:25.050Z,42.60
2018-06-07T11:23:53.618Z,42.30
2018-06-07T11:26:22.174Z,42.20
2018-06-07T11:28:50.788Z,41.60
2018-06-07T11:31:19.338Z,41.70
2018-06-07T11:33:47.795Z,41.70
2018-06-07T11:36:16.307Z,41.80
2018-06-07T11:38:44.789Z,41.80
2018-06-07T11:41:14.013Z,41.30
2018-06-07T11:43:42.785Z,41.60
2018-06-07T11:46:11.500Z,41.30
2018-06-07T11:48:39.993Z,41.70
2018-06-07T11:51:09.248Z,41.70
2018-06-07T11:53:37.881Z,41.90
2018-06-07T11:56:06.414Z,41.90
2018-06-07T12:01:03.299Z,42.10
2018-06-07T12:03:31.780Z,42.20
2018-06-07T12:06:00.315Z,42.20
2018-06-07T12:08:28.978Z,42.90
2018-06-07T12:10:58.529Z,41.90
2018-06-07T12:13:27.051Z,41.90
2018-06-07T12:15:55.600Z,41.80
2018-06-07T12:18:25.226Z,41.60
2018-06-07T12:20:53.724Z,41.60
2018-06-07T12:23:22.249Z,41.10
2018-06-07T12:25:50.718Z,41.20
2018-06-07T12:28:19.449Z,41.30
2018-06-07T12:30:47.935Z,41.60
2018-06-07T12:33:16.460Z,41.40
2018-06-07T12:35:44.935Z,41.30
2018-06-07T12:38:13.453Z,41.30
2018-06-07T12:40:42.024Z,41.80
2018-06-07T12:43:10.585Z,41.60
2018-06-07T12:45:41.218Z,40.70
2018-06-07T12:48:09.771Z,39.90
2018-06-07T12:50:38.368Z,39.50
2018-06-07T12:53:06.911Z,36.40
2018-06-07T12:55:36.741Z,35.40
2018-06-07T12:58:05.340Z,34.20
2018-06-07T13:00:33.957Z,32.40
2018-06-07T13:03:02.577Z,31.40
2018-06-07T13:05:31.155Z,29.10
2018-06-07T13:07:59.682Z,29.50
2018-06-07T13:10:30.150Z,30.00
2018-06-07T13:12:58.992Z,27.90
2018-06-07T13:15:32.036Z,27.30
2018-06-07T13:18:01.395Z,26.60
2018-06-07T13:20:30.721Z,25.70
2018-06-07T13:22:59.284Z,24.80
2018-06-07T13:25:29.077Z,24.30
2018-06-07T13:27:57.643Z,23.70
2018-06-07T13:30:26.239Z,22.80
2018-06-07T13:32:55.027Z,21.30
2018-06-07T13:35:25.619Z,21.50
2018-06-07T13:37:55.281Z,21.70
2018-06-07T13:40:23.925Z,20.70
2018-06-07T13:45:23.708Z,18.20
2018-06-07T13:47:52.213Z,20.60
2018-06-07T13:50:25.310Z,19.40
2018-06-07T13:52:53.935Z,18.80
2018-06-07T13:57:50.735Z,17.80
2018-06-07T14:00:19.526Z,17.20
2018-06-07T14:02:48.880Z,16.70
2018-06-07T14:05:17.403Z,16.00
2018-06-07T14:07:45.930Z,15.50
2018-06-07T14:10:14.494Z,15.00
2018-06-07T14:12:43.064Z,15.10
2018-06-07T14:15:11.626Z,14.70
2018-06-07T14:17:40.837Z,14.70
2018-06-07T14:20:15.066Z,13.20
2018-06-07T14:22:49.242Z,13.50
2018-06-07T14:25:23.927Z,13.40
2018-06-07T14:27:54.221Z,12.90
2018-06-07T14:30:22.872Z,13.10
2018-06-07T14:32:51.354Z,13.40
2018-06-07T14:35:19.908Z,13.50
2018-06-07T14:37:48.383Z,12.30
2018-06-07T14:40:16.891Z,13.00
2018-06-07T14:42:45.406Z,11.90
2018-06-07T14:45:13.916Z,12.30
2018-06-07T14:47:42.429Z,11.20
2018-06-07T14:50:10.929Z,11.10
2018-06-07T14:52:39.396Z,11.00
2018-06-07T14:55:07.901Z,10.50
2018-06-07T14:57:36.357Z,10.50
2018-06-07T15:00:06.063Z,11.20
2018-06-07T15:02:34.590Z,10.60
2018-06-07T15:05:03.155Z,9.80
2018-06-07T15:07:31.708Z,10.10
2018-06-07T15:10:00.311Z,10.60
2018-06-07T15:12:28.800Z,9.80
2018-06-07T15:14:57.368Z,9.80
2018-06-07T15:17:25.815Z,9.70
2018-06-07T15:19:54.281Z,8.90
2018-06-07T15:22:22.752Z,8.80
2018-06-07T15:24:51.214Z,9.40
2018-06-07T15:27:19.737Z,9.40
2018-06-07T15:29:48.216Z,9.50
2018-06-07T15:32:16.737Z,9.70
2018-06-07T15:34:45.251Z,9.90
2018-06-07T15:37:14.169Z,9.90
2018-06-07T15:39:42.631Z,9.70
2018-06-07T15:42:11.151Z,10.20
2018-06-07T15:44:39.630Z,10.90
2018-06-07T15:47:08.168Z,11.60
2018-06-07T15:49:36.629Z,12.00
2018-06-07T15:52:05.146Z,12.10
2018-06-07T15:54:33.633Z,12.20
2018-06-07T15:57:02.240Z,11.70
2018-06-07T15:59:30.890Z,12.20
2018-06-07T16:01:59.439Z,12.60
2018-06-07T16:04:28.605Z,13.40
2018-06-07T16:06:57.152Z,14.00
2018-06-07T16:09:25.715Z,15.00
2018-06-07T16:11:54.426Z,15.90
2018-06-07T16:14:23.632Z,16.40
2018-06-07T16:16:52.445Z,17.20
2018-06-07T16:21:49.278Z,17.60
2018-06-07T16:24:17.870Z,18.20
2018-06-07T16:26:46.399Z,18.80
2018-06-07T16:29:15.049Z,19.10
2018-06-07T16:31:43.679Z,20.10
2018-06-07T16:34:12.505Z,21.00
2018-06-07T16:36:41.057Z,21.60
2018-06-07T16:39:09.627Z,22.30
2018-06-07T16:41:38.919Z,23.10
2018-06-07T16:44:07.398Z,23.20
2018-06-07T16:46:35.927Z,23.80
2018-06-07T16:49:04.423Z,24.20
2018-06-07T16:51:33.170Z,24.70
2018-06-07T16:54:01.703Z,24.90
2018-06-07T16:56:30.261Z,25.20
2018-06-07T16:58:58.781Z,25.90
2018-06-07T17:01:27.471Z,26.20
2018-06-07T17:03:56.170Z,26.60
2018-06-07T17:06:24.663Z,27.30
2018-06-07T17:08:53.284Z,27.20
2018-06-07T17:11:22.792Z,27.10
2018-06-07T17:13:51.328Z,27.00
2018-06-07T17:16:20.520Z,27.20
2018-06-07T17:18:49.076Z,27.80
2018-06-07T17:21:17.590Z,28.10
2018-06-07T17:23:46.552Z,28.20
2018-06-07T17:26:15.078Z,28.60
2018-06-07T17:28:43.680Z,28.90
2018-06-07T17:31:14.154Z,29.20
2018-06-07T17:33:42.689Z,29.40
2018-06-07T17:36:11.200Z,29.60
2018-06-07T17:38:39.726Z,29.50
2018-06-07T17:41:08.212Z,30.00
2018-06-07T17:43:36.734Z,30.00
2018-06-07T17:46:05.513Z,30.30
2018-06-07T17:48:34.024Z,30.00
2018-06-07T17:51:02.604Z,30.10
2018-06-07T17:53:31.161Z,30.70
2018-06-07T17:56:00.181Z,30.80
2018-06-07T17:58:28.779Z,31.50
2018-06-07T18:00:57.480Z,31.40
2018-06-07T18:03:26.043Z,31.40
2018-06-07T18:05:54.510Z,31.30
2018-06-07T18:08:23.099Z,31.40
2018-06-07T18:10:51.776Z,31.90
2018-06-07T18:13:20.383Z,32.00
2018-06-07T18:15:49.037Z,32.50
2018-06-07T18:18:17.731Z,32.40
2018-06-07T18:20:46.267Z,32.70
2018-06-07T18:23:14.878Z,32.70
2018-06-07T18:25:43.590Z,32.80
2018-06-07T18:28:12.300Z,33.00
2018-06-07T18:30:40.801Z,33.20
2018-06-07T18:33:10.210Z,33.80
2018-06-07T18:35:38.739Z,33.70
2018-06-07T18:38:07.314Z,33.80
2018-06-07T18:40:35.844Z,34.20
2018-06-07T18:43:04.475Z,34.20
2018-06-07T18:45:32.988Z,34.10
2018-06-07T18:48:02.145Z,34.40
2018-06-07T18:50:30.729Z,34.50
2018-06-07T18:52:59.274Z,34.70
2018-06-07T18:55:27.872Z,35.20
2018-06-07T18:57:56.824Z,35.50
2018-06-07T19:00:25.934Z,35.70
2018-06-07T19:02:54.482Z,35.60
2018-06-07T19:05:23.939Z,36.40
2018-06-07T19:07:52.498Z,37.20
2018-06-07T19:10:20.996Z,37.20
2018-06-07T19:12:49.537Z,37.20
2018-06-07T19:15:18.072Z,37.10
2018-06-07T19:17:46.596Z,37.00
2018-06-07T19:20:20.340Z,36.90
2018-06-07T19:22:48.902Z,37.90
2018-06-07T19:25:22.795Z,38.50
2018-06-07T19:27:51.305Z,38.80
2018-06-07T19:30:19.794Z,39.20
2018-06-07T19:32:53.637Z,39.40
2018-06-07T19:35:23.228Z,39.20
2018-06-07T19:37:53.404Z,40.10
2018-06-07T19:40:27.912Z,40.90
2018-06-07T19:43:00.666Z,41.20
2018-06-07T19:45:32.353Z,41.50
2018-06-07T19:48:00.904Z,42.10
2018-06-07T19:50:29.378Z,42.30
2018-06-07T19:52:57.890Z,43.20
2018-06-07T19:55:26.485Z,43.20
2018-06-07T19:57:54.991Z,43.00
2018-06-07T20:00:23.598Z,43.10
2018-06-07T20:02:52.082Z,43.60
2018-06-07T20:05:20.702Z,43.10
2018-06-07T20:07:49.146Z,43.60
2018-06-07T20:10:17.680Z,44.10
2018-06-07T20:12:46.272Z,43.60
2018-06-07T20:17:42.993Z,44.20
2018-06-07T20:20:12.192Z,44.30
2018-06-07T20:22:40.695Z,44.20
2018-06-07T20:25:09.251Z,44.60
2018-06-07T20:27:37.776Z,44.90
2018-06-07T20:30:06.375Z,45.40
2018-06-07T20:32:34.922Z,45.00
2018-06-07T20:35:03.508Z,45.20
2018-06-07T20:37:32.008Z,45.40
2018-06-07T20:40:00.527Z,45.40
2018-06-07T20:42:29.047Z,45.80
2018-06-07T20:44:57.543Z,45.60
2018-06-07T20:47:26.175Z,46.10
2018-06-07T20:49:54.798Z,47.50
2018-06-07T20:52:23.367Z,47.30
2018-06-07T20:54:51.860Z,47.10
2018-06-07T20:57:20.360Z,47.40
2018-06-07T20:59:48.913Z,48.80
2018-06-07T21:02:17.480Z,50.00
2018-06-07T21:04:46.009Z,49.10
2018-06-07T21:07:14.968Z,49.00
2018-06-07T21:09:43.681Z,48.90
2018-06-07T21:14:40.459Z,48.90
2018-06-07T21:19:37.408Z,48.90
2018-06-07T21:22:05.987Z,48.90
2018-06-07T21:24:34.435Z,48.80
2018-06-07T21:27:02.982Z,48.70
2018-06-07T21:29:31.534Z,48.80
2018-06-07T21:32:00.061Z,48.80
2018-06-07T21:34:28.512Z,48.80
2018-06-07T21:36:57.090Z,48.60
2018-06-07T21:39:25.605Z,48.70
2018-06-07T21:41:54.070Z,48.70
2018-06-07T21:44:22.531Z,48.60
2018-06-07T21:46:51.024Z,48.60
2018-06-07T21:49:19.509Z,48.50
2018-06-07T21:51:48.022Z,48.50
2018-06-07T21:54:16.498Z,48.50
2018-06-07T21:56:44.993Z,48.40
2018-06-07T21:59:13.584Z,48.70
2018-06-07T22:01:42.127Z,48.20
2018-06-07T22:04:10.682Z,48.20
2018-06-07T22:06:39.199Z,49.10
2018-06-07T22:09:08.109Z,49.40
2018-06-07T22:11:36.731Z,49.40
2018-06-07T22:14:05.201Z,50.10
2018-06-07T22:16:33.702Z,49.80
2018-06-07T22:19:02.158Z,50.10
2018-06-07T22:21:30.763Z,50.00
2018-06-07T22:24:00.084Z,50.60
2018-06-07T22:26:28.578Z,51.60
2018-06-07T22:28:57.038Z,51.30
2018-06-07T22:31:25.546Z,51.80
2018-06-07T22:33:54.570Z,51.60
2018-06-07T22:36:23.077Z,52.30
2018-06-07T22:38:51.494Z,52.60
2018-06-07T22:41:21.308Z,52.90
2018-06-07T22:43:49.757Z,52.20
2018-06-07T22:46:18.305Z,52.90
2018-06-07T22:48:46.757Z,53.80
2018-06-07T22:51:16.380Z,54.00
2018-06-07T22:53:44.857Z,54.10
2018-06-07T22:56:13.306Z,54.00
2018-06-07T22:58:42.216Z,54.00
2018-06-07T23:01:10.763Z,53.90
2018-06-07T23:06:07.510Z,54.40
2018-06-07T23:08:35.982Z,53.90
2018-06-07T23:11:04.438Z,53.80
2018-06-07T23:13:33.825Z,54.50
2018-06-07T23:16:02.326Z,54.30
2018-06-07T23:18:30.864Z,55.10
2018-06-07T23:20:59.336Z,54.80
2018-06-07T23:23:27.855Z,55.30
2018-06-07T23:25:57.185Z,54.40
2018-06-07T23:28:25.751Z,55.10
2018-06-07T23:30:55.211Z,55.60
2018-06-07T23:33:26.313Z,55.80
2018-06-07T23:35:54.755Z,55.80
2018-06-07T23:38:24.002Z,55.90
2018-06-07T23:40:53.989Z,56.00
2018-06-07T23:43:22.580Z,55.50
2018-06-07T23:45:51.178Z,56.20
2018-06-07T23:48:19.824Z,56.60
2018-06-07T23:50:49.363Z,56.30
2018-06-07T23:53:17.983Z,56.40
2018-06-07T23:55:46.822Z,57.50
2018-06-07T23:58:15.306Z,57.10
